Tangshan, China
Current Conditions -  °F | °C
As of 11:30 PM on Tuesday 21 Oct 2014 (Local Time) from ZBTJ Reporting Station
Clear Clear  
Wind Chill: 50°   Ceiling: Unl
Heat Index: 50°   Visibility: 4mi
Dew Point: 36°   Wind: 2mph
Humidity: 58%   Direction: 170°S
Pressure: 30.27"   Gusts: NA
Location:  39.62°N, 118.19°E
Report Text: ZBTJ 211530Z 17001MPS 7000 NSC 10/02 Q1025 NOSIG
Loading
Personal Weather Stations






























Interactive Weather Map
Tropical Storm Tracking
New forecast layout! Learn more

10-Day Weather Forecast

Advertisements
Track Severe Weather on mobile